Time;durP1;ratioP1;P1;durP2;ratioP2;P2;SDS_P1;SDS_P2;PMS_P1;PMS_P2;Temp;Humidity;BMP_temperature;BMP_pressure;BME280_temperature;BME280_humidity;BME280_pressure;Samples;Min_cycle;Max_cycle;Signal;HPM_P1;HPM_P2
2022/11/27 00:01:24;;;;;;;15.85;7.80;;;;;;;3.32;84.10;98008.34;5007071;28;20065;-59
2022/11/27 00:03:52;;;;;;;17.15;8.15;;;;;;;3.34;84.37;98008.84;5007318;28;20088;-58
2022/11/27 00:06:21;;;;;;;19.70;8.82;;;;;;;3.41;84.71;98001.09;5006941;28;20140;-58
2022/11/27 00:08:49;;;;;;;20.73;10.27;;;;;;;3.04;84.39;97938.22;5006372;28;20112;-54
2022/11/27 00:11:22;;;;;;;20.15;10.05;;;;;;;3.48;84.17;98008.91;5007092;28;20137;-54
2022/11/27 00:13:50;;;;;;;26.65;11.35;;;;;;;3.57;83.68;98002.44;5007076;28;20062;-58
2022/11/27 00:16:18;;;;;;;23.00;10.57;;;;;;;3.61;83.79;98008.94;5007227;28;20440;-54
2022/11/27 00:18:46;;;;;;;22.25;10.13;;;;;;;3.77;84.54;98007.53;5006910;28;20208;-54
2022/11/27 00:21:15;;;;;;;23.52;10.15;;;;;;;3.57;83.70;97974.22;5006681;28;20260;-58
2022/11/27 00:23:42;;;;;;;24.48;10.68;;;;;;;3.86;83.35;98011.19;5007056;28;20053;-54
2022/11/27 00:26:09;;;;;;;24.67;11.65;;;;;;;3.90;83.72;98017.69;5007137;28;20493;-55
2022/11/27 00:28:37;;;;;;;20.10;9.48;;;;;;;3.95;83.69;98014.03;5007508;28;20111;-54
2022/11/27 00:31:13;;;;;;;15.15;8.23;;;;;;;3.86;84.33;98019.41;5007117;28;20076;-53
2022/11/27 00:33:40;;;;;;;21.08;10.85;;;;;;;3.24;84.74;97915.94;5007103;28;20061;-54
2022/11/27 00:36:07;;;;;;;19.70;10.27;;;;;;;3.81;85.09;98016.75;5006945;28;20135;-55
2022/11/27 00:38:35;;;;;;;22.20;11.02;;;;;;;3.67;86.52;98024.16;5006637;28;20175;-55
2022/11/27 00:41:06;;;;;;;34.08;14.93;;;;;;;3.53;87.61;98001.41;5006571;28;20054;-58
2022/11/27 00:43:34;;;;;;;33.97;15.63;;;;;;;3.74;87.28;98026.50;5006288;28;20107;-54
2022/11/27 00:46:11;;;;;;;34.85;15.45;;;;;;;3.66;86.40;98006.09;5006366;28;20057;-54
2022/11/27 00:48:38;;;;;;;31.95;14.60;;;;;;;3.86;86.54;98024.88;5006801;28;20060;-54
2022/11/27 00:51:08;;;;;;;31.83;14.70;;;;;;;4.07;86.50;98028.03;5006211;28;20586;-58
2022/11/27 00:53:35;;;;;;;20.55;10.85;;;;;;;3.71;85.08;97956.69;5006165;28;20053;-58
2022/11/27 00:56:02;;;;;;;24.45;10.82;;;;;;;4.05;85.67;98025.59;5006133;28;20073;-58
2022/11/27 00:58:29;;;;;;;23.77;12.15;;;;;;;4.00;85.45;98001.03;5004824;28;20448;-54
2022/11/27 01:00:58;;;;;;;26.63;11.75;;;;;;;4.09;85.46;98026.66;5006384;28;20475;-58
2022/11/27 01:03:25;;;;;;;20.42;10.90;;;;;;;3.98;86.01;98002.47;5005837;28;20612;-54
2022/11/27 01:05:52;;;;;;;22.13;10.20;;;;;;;4.21;86.06;98015.97;5006296;28;20053;-54
2022/11/27 01:08:20;;;;;;;24.17;10.63;;;;;;;4.17;84.11;98001.22;5006105;28;20057;-54
2022/11/27 01:10:55;;;;;;;20.67;9.15;;;;;;;4.17;84.15;98017.69;5006270;28;20105;-56
2022/11/27 01:13:23;;;;;;;23.95;11.73;;;;;;;4.25;84.07;98007.94;5005887;28;20564;-58
2022/11/27 01:16:02;;;;;;;24.80;11.70;;;;;;;4.24;84.22;98009.88;5006050;28;20151;-54
2022/11/27 01:18:29;;;;;;;25.00;11.70;;;;;;;4.24;84.08;98007.13;5005466;28;20070;-55
2022/11/27 01:20:56;;;;;;;21.17;11.05;;;;;;;4.29;84.49;98008.94;5006210;28;20117;-58
2022/11/27 01:23:23;;;;;;;21.63;10.02;;;;;;;4.24;84.27;98018.09;5005842;28;20496;-58
2022/11/27 01:25:52;;;;;;;18.25;8.32;;;;;;;4.24;84.93;98012.59;5005710;28;20591;-58
2022/11/27 01:28:20;;;;;;;13.20;6.95;;;;;;;4.16;85.68;98018.81;5005507;28;20100;-54
2022/11/27 01:30:47;;;;;;;13.90;7.55;;;;;;;4.24;84.82;98007.13;5005546;28;20140;-55
2022/11/27 01:33:15;;;;;;;18.08;6.80;;;;;;;4.25;85.12;98008.72;5005380;28;20086;-58
2022/11/27 01:35:41;;;;;;;16.20;7.35;;;;;;;4.31;84.75;98007.53;5005840;28;20134;-53
2022/11/27 01:38:08;;;;;;;14.00;6.43;;;;;;;4.35;84.49;98008.53;5005683;28;20050;-54
2022/11/27 01:40:34;;;;;;;12.55;6.60;;;;;;;4.30;85.15;98005.91;5005374;28;20571;-54
2022/11/27 01:43:01;;;;;;;14.48;6.85;;;;;;;4.34;85.08;98006.91;5005607;28;20461;-56
2022/11/27 01:45:28;;;;;;;15.40;7.13;;;;;;;4.29;84.72;98008.94;5005219;28;20631;-58
2022/11/27 01:48:01;;;;;;;13.25;6.75;;;;;;;4.36;84.34;98004.66;5005196;28;20052;-59
2022/11/27 01:50:33;;;;;;;11.55;6.20;;;;;;;4.16;84.42;97980.41;5003541;28;20058;-58
2022/11/27 01:53:12;;;;;;;15.38;7.32;;;;;;;4.33;84.48;97997.06;5005265;28;20547;-58
2022/11/27 01:55:45;;;;;;;14.45;7.43;;;;;;;4.33;84.81;97999.78;5004971;28;20588;-55
2022/11/27 01:58:24;;;;;;;12.95;6.68;;;;;;;4.43;84.46;97991.34;5005332;28;20136;-57
2022/11/27 02:00:51;;;;;;;11.60;5.85;;;;;;;4.36;83.89;97992.91;5005180;28;20488;-57
2022/11/27 02:03:17;;;;;;;11.63;5.97;;;;;;;4.45;83.93;97997.34;5003718;28;20062;-55
2022/11/27 02:05:44;;;;;;;11.25;5.20;;;;;;;3.82;83.36;97889.63;5005197;28;20585;-54
2022/11/27 02:08:14;;;;;;;11.32;4.10;;;;;;;4.47;82.91;97989.59;5005051;28;20137;-55
2022/11/27 02:11:00;;;;;;;6.40;4.30;;;;;;;4.43;82.86;97988.63;5005098;28;20050;-54
2022/11/27 02:13:39;;;;;;;10.63;4.95;;;;;;;4.35;82.91;97997.56;5005025;28;20053;-56
2022/11/27 02:16:24;;;;;;;9.20;5.22;;;;;;;4.23;83.81;97989.06;5005198;28;20084;-54
2022/11/27 02:19:26;;;;;;;13.20;5.75;;;;;;;4.22;83.80;97992.91;5004782;28;20386;-58
2022/11/27 02:22:10;;;;;;;11.40;5.40;;;;;;;4.22;83.73;97987.41;4994970;28;20085;-54
2022/11/27 02:25:01;;;;;;;16.27;6.88;;;;;;;3.46;85.09;97880.50;5005387;28;20587;-54
2022/11/27 02:27:49;;;;;;;11.52;6.10;;;;;;;4.19;85.01;97993.50;5005367;28;20288;-58
2022/11/27 02:30:16;;;;;;;9.40;4.90;;;;;;;4.14;85.27;98012.81;5005136;28;20069;-55
2022/11/27 02:32:54;;;;;;;13.30;6.53;;;;;;;4.13;84.87;97978.28;5004793;28;20583;-57
2022/11/27 02:35:35;;;;;;;11.27;5.00;;;;;;;4.20;85.49;97995.16;5004675;28;20057;-55
2022/11/27 02:38:09;;;;;;;10.75;6.13;;;;;;;4.05;85.15;97965.31;5003524;28;20058;-57
2022/11/27 02:40:48;;;;;;;12.77;5.45;;;;;;;4.29;85.38;98006.19;5005090;28;20054;-54
2022/11/27 02:43:20;;;;;;;7.50;4.68;;;;;;;4.36;84.76;98004.66;5004973;28;20165;-59
2022/11/27 02:45:50;;;;;;;11.27;5.22;;;;;;;4.34;84.84;98004.19;5004918;28;20046;-58
2022/11/27 02:48:20;;;;;;;11.68;5.68;;;;;;;4.39;84.88;98004.03;5004724;28;20495;-58
2022/11/27 02:50:50;;;;;;;10.02;5.13;;;;;;;4.39;83.96;97995.81;5004818;28;20061;-54
2022/11/27 02:53:22;;;;;;;19.83;7.82;;;;;;;4.34;83.56;98001.44;5004695;28;20053;-58
2022/11/27 02:55:52;;;;;;;18.05;8.85;;;;;;;4.16;85.18;97999.63;5004362;28;20149;-54
2022/11/27 02:58:26;;;;;;;19.55;8.93;;;;;;;4.26;84.68;98004.91;5005078;28;20112;-56
2022/11/27 03:00:55;;;;;;;11.82;7.05;;;;;;;3.93;84.00;97950.50;5003740;28;20050;-54
2022/11/27 03:03:29;;;;;;;20.63;8.63;;;;;;;4.30;84.06;97994.94;5006948;28;20144;-58
2022/11/27 03:06:02;;;;;;;13.15;6.47;;;;;;;4.32;82.54;97992.69;5008680;28;20049;-54
2022/11/27 03:08:35;;;;;;;10.75;6.10;;;;;;;4.49;81.93;98003.84;5008783;28;20054;-54
2022/11/27 03:11:01;;;;;;;9.88;5.68;;;;;;;4.47;82.32;98003.31;5008612;28;20053;-58
2022/11/27 03:13:32;;;;;;;12.88;6.85;;;;;;;4.46;82.51;98004.44;5008053;28;20556;-58
2022/11/27 03:16:53;;;;;;;22.23;9.30;;;;;;;4.31;83.30;97999.31;5006520;28;20061;-56
2022/11/27 03:19:34;;;;;;;18.42;8.88;;;;;;;4.02;83.55;97954.13;4965755;28;20058;-58
2022/11/27 03:22:02;;;;;;;15.80;7.80;;;;;;;4.36;83.87;98007.41;5008148;28;20066;-55
2022/11/27 03:24:32;;;;;;;13.43;5.88;;;;;;;4.36;83.95;98004.66;5008381;28;20050;-54
2022/11/27 03:26:59;;;;;;;10.45;6.38;;;;;;;4.44;84.51;98006.69;5007919;28;20140;-55
2022/11/27 03:29:47;;;;;;;11.65;5.97;;;;;;;4.46;84.73;98009.94;5008288;28;20050;-58
2022/11/27 03:32:14;;;;;;;10.98;6.38;;;;;;;4.45;85.63;98007.50;5007559;28;20053;-58
2022/11/27 03:34:41;;;;;;;14.80;6.30;;;;;;;4.31;86.61;98013.03;5008368;28;20133;-56
2022/11/27 03:37:09;;;;;;;14.02;6.75;;;;;;;4.05;86.48;97959.81;5007154;28;20068;-54
2022/11/27 03:39:36;;;;;;;13.55;6.90;;;;;;;4.45;86.02;98010.25;5008108;28;20139;-59
2022/11/27 03:42:17;;;;;;;17.17;7.30;;;;;;;4.59;86.06;98008.28;5007278;28;20600;-58
2022/11/27 03:45:04;;;;;;;13.25;6.65;;;;;;;4.48;84.89;97984.94;5006229;28;20132;-58
2022/11/27 03:47:52;;;;;;;16.30;7.28;;;;;;;4.60;85.33;98018.13;5006975;28;20053;-54
2022/11/27 03:50:27;;;;;;;13.60;5.93;;;;;;;4.50;85.20;97988.19;5007488;28;20053;-59
2022/11/27 03:53:03;;;;;;;12.73;7.55;;;;;;;4.68;84.67;98016.63;5007621;28;20050;-58
2022/11/27 03:55:42;;;;;;;14.60;6.93;;;;;;;4.73;83.92;98013.75;5005877;28;20124;-58
2022/11/27 03:58:19;;;;;;;10.80;5.70;;;;;;;4.55;85.56;98008.09;5007676;28;20179;-58
2022/11/27 04:00:50;;;;;;;13.82;6.70;;;;;;;4.60;85.94;98005.22;5006001;28;20049;-58
2022/11/27 04:03:23;;;;;;;13.27;7.05;;;;;;;4.63;85.92;98007.34;5007221;28;20133;-55
2022/11/27 04:05:50;;;;;;;14.90;7.55;;;;;;;4.62;85.90;98003.00;5007351;28;20114;-55
2022/11/27 04:08:17;;;;;;;12.90;7.35;;;;;;;2.39;85.71;97679.56;5007106;28;20998;-54
2022/11/27 04:10:45;;;;;;;13.38;6.82;;;;;;;4.44;86.08;98001.19;5007200;28;20077;-55
2022/11/27 04:13:12;;;;;;;13.75;6.72;;;;;;;4.21;86.16;97985.81;5006749;28;20127;-58
2022/11/27 04:15:38;;;;;;;16.35;7.82;;;;;;;4.27;86.25;97972.78;5006874;28;20053;-58
2022/11/27 04:18:05;;;;;;;12.23;8.20;;;;;;;3.99;86.77;97938.28;5005537;28;20046;-58
2022/11/27 04:20:32;;;;;;;12.52;6.53;;;;;;;3.94;86.97;97952.91;5007001;28;20460;-55
2022/11/27 04:22:59;;;;;;;11.23;6.70;;;;;;;4.39;86.44;98004.03;5007041;28;20140;-58
2022/11/27 04:25:26;;;;;;;16.15;8.25;;;;;;;4.43;86.85;98010.56;5007001;28;20100;-55
2022/11/27 04:27:52;;;;;;;13.68;7.18;;;;;;;4.09;87.63;97960.03;5007131;28;20432;-56
2022/11/27 04:30:19;;;;;;;16.08;8.52;;;;;;;4.40;87.95;98011.19;5007148;28;20374;-53
2022/11/27 04:32:46;;;;;;;14.40;8.57;;;;;;;4.41;88.25;98012.78;5006683;28;20078;-55
2022/11/27 04:35:13;;;;;;;15.48;9.02;;;;;;;4.21;88.26;98002.25;5005679;28;20175;-56
2022/11/27 04:37:39;;;;;;;13.35;7.50;;;;;;;3.87;89.71;98007.31;5006355;28;20089;-54
2022/11/27 04:40:06;;;;;;;14.75;8.05;;;;;;;3.83;91.65;98011.78;5005319;28;20136;-54
2022/11/27 04:42:33;;;;;;;16.85;8.85;;;;;;;4.07;91.03;98012.41;5006386;28;20564;-58
2022/11/27 04:45:00;;;;;;;17.20;8.88;;;;;;;4.15;90.48;98024.59;5005403;28;20054;-59
2022/11/27 04:47:26;;;;;;;20.88;10.45;;;;;;;4.26;89.75;98012.31;5006476;28;20132;-54
2022/11/27 04:49:53;;;;;;;24.55;12.18;;;;;;;4.29;89.71;98015.25;5006507;28;20103;-59
2022/11/27 04:52:19;;;;;;;18.40;9.93;;;;;;;4.35;88.54;98014.03;5006056;28;20603;-53
2022/11/27 04:54:46;;;;;;;16.08;8.55;;;;;;;4.51;87.08;98018.06;5006419;28;20492;-58
2022/11/27 04:57:12;;;;;;;18.70;9.50;;;;;;;4.21;88.38;98007.75;5005879;28;20049;-54
2022/11/27 04:59:39;;;;;;;21.13;11.55;;;;;;;4.23;89.16;98010.19;5006564;28;20108;-58
2022/11/27 05:02:06;;;;;;;16.27;9.30;;;;;;;3.85;90.73;98015.06;5006449;28;20132;-58
2022/11/27 05:04:33;;;;;;;17.90;8.63;;;;;;;3.66;93.36;98017.06;5006262;28;20093;-54
2022/11/27 05:06:59;;;;;;;20.52;9.35;;;;;;;3.90;92.61;98023.19;5005802;28;20252;-58
2022/11/27 05:09:26;;;;;;;19.20;10.32;;;;;;;3.18;91.43;97895.25;5006317;28;20108;-54
2022/11/27 05:11:52;;;;;;;20.40;11.13;;;;;;;3.99;91.09;98026.84;5005954;28;20137;-58
2022/11/27 05:14:21;;;;;;;20.27;10.65;;;;;;;4.11;90.66;98024.38;5005680;28;20485;-57
2022/11/27 05:16:53;;;;;;;29.10;12.90;;;;;;;4.07;91.87;98023.38;5005993;28;20147;-54
2022/11/27 05:19:22;;;;;;;33.40;14.60;;;;;;;3.62;92.43;97947.53;5005558;28;20057;-57
2022/11/27 05:21:49;;;;;;;28.60;14.80;;;;;;;4.09;92.63;98018.41;5005873;28;20150;-54
2022/11/27 05:24:17;;;;;;;29.15;15.30;;;;;;;4.23;91.54;98005.50;5005247;28;20688;-58
2022/11/27 05:26:44;;;;;;;29.60;14.43;;;;;;;4.27;91.27;98011.16;5005480;28;20058;-58
2022/11/27 05:29:11;;;;;;;34.80;17.55;;;;;;;4.32;90.43;98005.59;5004323;28;20050;-57
2022/11/27 05:31:38;;;;;;;33.97;17.95;;;;;;;4.39;89.27;98020.50;5005236;28;20061;-53
2022/11/27 05:34:06;;;;;;;46.63;24.13;;;;;;;4.47;88.02;98022.53;5005579;28;20152;-58
2022/11/27 05:36:33;;;;;;;37.25;19.75;;;;;;;4.35;88.32;98079.84;5005330;28;20081;-58
2022/11/27 05:39:01;;;;;;;38.83;20.23;;;;;;;4.37;89.62;98021.94;5005418;28;20497;-53
2022/11/27 05:41:27;;;;;;;43.65;21.45;;;;;;;4.44;89.67;98012.16;5005457;28;20108;-57
2022/11/27 05:43:54;;;;;;;47.95;24.75;;;;;;;4.45;89.70;98030.28;5005234;28;20061;-54
2022/11/27 05:46:22;;;;;;;44.20;23.77;;;;;;;4.49;89.17;98025.78;5004967;28;20116;-54
2022/11/27 05:48:49;;;;;;;44.67;21.40;;;;;;;4.50;89.15;98027.41;4985591;28;20046;-59
2022/11/27 05:51:16;;;;;;;41.50;21.77;;;;;;;4.61;88.51;98045.28;4985428;28;20089;-59
2022/11/27 05:53:44;;;;;;;42.63;21.98;;;;;;;4.61;88.30;98056.28;4984027;28;20531;-58
2022/11/27 05:56:14;;;;;;;39.22;21.05;;;;;;;4.65;89.27;98049.03;4985299;28;20142;-53
2022/11/27 05:58:42;;;;;;;32.08;17.63;;;;;;;4.71;87.70;98051.66;4985745;28;20129;-57
2022/11/27 06:01:11;;;;;;;40.38;19.10;;;;;;;4.78;87.49;98052.03;4985396;28;20046;-56
2022/11/27 06:03:38;;;;;;;52.17;27.00;;;;;;;4.87;86.04;98069.44;5016692;28;20142;-53
2022/11/27 06:06:09;;;;;;;34.65;19.42;;;;;;;4.79;87.04;98061.91;4985067;28;20050;-55
2022/11/27 06:08:39;;;;;;;32.75;19.15;;;;;;;4.20;86.22;97961.44;4985436;28;20116;-55
2022/11/27 06:11:11;;;;;;;33.80;19.30;;;;;;;4.96;85.95;98062.06;4985399;28;20433;-54
2022/11/27 06:13:39;;;;;;;38.33;19.10;;;;;;;4.93;86.08;98070.94;4985525;28;20482;-54
2022/11/27 06:16:08;;;;;;;22.55;13.70;;;;;;;4.98;86.27;98066.13;4985321;28;20056;-53
2022/11/27 06:18:34;;;;;;;24.20;14.30;;;;;;;4.95;87.05;98061.25;4985114;28;20418;-57
2022/11/27 06:21:08;;;;;;;24.75;13.73;;;;;;;5.02;86.94;98066.31;4985381;28;20046;-57
2022/11/27 06:23:35;;;;;;;29.80;17.20;;;;;;;5.23;85.51;98056.50;4985019;28;20054;-54
2022/11/27 06:26:10;;;;;;;27.88;17.13;;;;;;;5.31;84.06;98058.50;4986951;28;20058;-53
2022/11/27 06:28:37;;;;;;;24.63;14.88;;;;;;;4.83;83.94;97986.06;5004865;28;20133;-55
2022/11/27 06:31:06;;;;;;;14.73;9.45;;;;;;;5.39;82.76;98066.78;5005173;28;20045;-55
2022/11/27 06:33:33;;;;;;;44.97;19.63;;;;;;;5.22;83.56;98032.88;5003262;28;20053;-53
2022/11/27 06:36:01;;;;;;;107.78;40.22;;;;;;;5.42;83.35;98059.88;5006245;28;20112;-57
2022/11/27 06:38:27;;;;;;;88.03;37.92;;;;;;;5.51;82.90;98069.00;5008641;28;20056;-57
2022/11/27 06:40:54;;;;;;;64.15;30.40;;;;;;;5.14;82.56;97997.97;5007227;28;20520;-57
2022/11/27 06:43:21;;;;;;;42.75;25.17;;;;;;;5.62;83.07;98064.84;5008165;28;20112;-53
2022/11/27 06:45:55;;;;;;;30.15;16.38;;;;;;;5.65;83.69;98081.53;5009161;28;20054;-58
2022/11/27 06:48:22;;;;;;;19.88;11.85;;;;;;;5.47;83.21;98018.53;5008614;28;20563;-57
2022/11/27 06:50:49;;;;;;;17.90;10.45;;;;;;;5.79;82.21;98070.47;5008553;28;20596;-56
2022/11/27 06:53:17;;;;;;;28.70;15.43;;;;;;;5.81;82.74;98076.47;5008190;28;20058;-54
2022/11/27 06:55:43;;;;;;;31.20;15.50;;;;;;;5.79;82.89;98065.78;5008603;28;20104;-54
2022/11/27 06:58:10;;;;;;;27.17;15.07;;;;;;;5.86;82.68;98088.16;5008395;28;20427;-57
2022/11/27 07:00:37;;;;;;;27.90;16.55;;;;;;;5.94;82.50;98068.16;5008225;28;20303;-57
2022/11/27 07:03:03;;;;;;;27.05;16.73;;;;;;;5.99;81.95;98067.22;5006724;28;20057;-57
2022/11/27 07:05:30;;;;;;;29.63;15.10;;;;;;;5.91;83.06;98074.28;5006531;28;20261;-57
2022/11/27 07:07:57;;;;;;;33.50;16.17;;;;;;;6.04;82.41;98067.88;5008311;28;20057;-57
2022/11/27 07:10:24;;;;;;;30.05;15.57;;;;;;;6.10;81.99;98060.31;5008284;28;20124;-58
2022/11/27 07:12:51;;;;;;;29.25;15.55;;;;;;;5.81;83.63;98068.22;5008129;28;20064;-53
2022/11/27 07:15:17;;;;;;;27.67;14.63;;;;;;;6.04;82.47;98056.06;5008042;28;20054;-57
2022/11/27 07:17:44;;;;;;;31.38;13.82;;;;;;;6.02;82.83;98058.34;5007800;28;20085;-57
2022/11/27 07:20:11;;;;;;;38.33;18.35;;;;;;;6.25;81.60;98057.16;5007789;28;20163;-56
2022/11/27 07:22:37;;;;;;;26.00;12.95;;;;;;;6.19;81.06;98063.91;5007862;28;20120;-53
2022/11/27 07:25:04;;;;;;;25.50;13.32;;;;;;;6.12;81.14;98063.56;5007634;28;20049;-56
2022/11/27 07:27:31;;;;;;;16.77;9.07;;;;;;;6.05;80.69;98057.72;5007566;28;20583;-57
2022/11/27 07:29:57;;;;;;;11.90;7.18;;;;;;;5.91;80.64;98059.75;5007961;28;20058;-53
2022/11/27 07:32:24;;;;;;;19.10;8.55;;;;;;;5.96;81.18;98059.59;5008105;28;20108;-58
2022/11/27 07:34:51;;;;;;;19.05;9.52;;;;;;;5.48;80.99;97987.19;5006316;28;20140;-57
2022/11/27 07:37:17;;;;;;;17.92;9.07;;;;;;;5.91;80.55;98002.78;5007574;28;21001;-58
2022/11/27 07:39:44;;;;;;;17.02;8.07;;;;;;;6.37;78.34;98051.84;5006166;28;20136;-57
2022/11/27 07:42:29;;;;;;;11.93;7.25;;;;;;;6.36;77.98;98032.91;5007593;28;20050;-58
2022/11/27 07:45:07;;;;;;;10.13;6.63;;;;;;;6.58;77.61;98050.13;5007142;28;20053;-57
2022/11/27 07:47:34;;;;;;;10.30;6.32;;;;;;;6.73;76.49;98041.44;5006399;28;20108;-58
2022/11/27 07:50:00;;;;;;;11.90;6.18;;;;;;;6.91;76.15;98058.78;5007530;28;20101;-58
2022/11/27 07:52:27;;;;;;;13.32;6.88;;;;;;;6.95;77.67;98059.75;5007519;28;20054;-54
2022/11/27 07:54:54;;;;;;;17.58;7.32;;;;;;;7.08;76.74;98062.34;5007067;28;20133;-58
2022/11/27 07:57:20;;;;;;;19.38;7.70;;;;;;;7.16;76.56;98061.56;5007562;28;20137;-58
2022/11/27 07:59:47;;;;;;;16.20;7.57;;;;;;;7.19;74.14;98054.59;5007845;28;20474;-57
2022/11/27 08:02:14;;;;;;;15.02;8.27;;;;;;;6.90;74.91;97975.34;5005768;28;20050;-55
2022/11/27 08:04:40;;;;;;;12.52;7.15;;;;;;;7.59;73.44;98053.28;5007166;28;20119;-56
2022/11/27 08:07:08;;;;;;;13.80;6.03;;;;;;;7.18;72.01;97981.31;5006794;28;20049;-58
2022/11/27 08:09:34;;;;;;;10.88;6.32;;;;;;;7.85;71.90;98050.47;5005731;28;20149;-58
2022/11/27 08:12:01;;;;;;;12.98;6.20;;;;;;;8.00;70.63;98036.16;5007051;28;20153;-54
2022/11/27 08:14:27;;;;;;;11.15;6.70;;;;;;;8.14;70.10;98048.59;5007207;28;20050;-54
2022/11/27 08:16:54;;;;;;;12.32;7.55;;;;;;;8.18;70.69;98055.09;5007284;28;20057;-58
2022/11/27 08:19:21;;;;;;;13.75;8.32;;;;;;;8.26;70.53;98050.69;5005308;28;20093;-54
2022/11/27 08:21:48;;;;;;;11.27;7.50;;;;;;;8.04;69.23;98004.81;5006610;28;20058;-57
2022/11/27 08:24:15;;;;;;;14.93;7.97;;;;;;;8.55;68.47;98059.03;5007242;28;20053;-56
2022/11/27 08:26:42;;;;;;;13.50;7.75;;;;;;;8.43;67.81;98034.06;5005778;28;20054;-57
2022/11/27 08:29:12;;;;;;;14.90;8.27;;;;;;;8.74;66.81;98067.72;5007013;28;20086;-55
2022/11/27 08:31:38;;;;;;;18.00;8.73;;;;;;;8.35;66.20;97974.19;5007066;28;20501;-57
2022/11/27 08:34:05;;;;;;;15.80;8.07;;;;;;;8.89;65.65;98047.78;5006592;28;20508;-54
2022/11/27 08:36:32;;;;;;;16.13;9.25;;;;;;;9.06;65.06;98053.19;5005503;28;20137;-55
2022/11/27 08:38:58;;;;;;;15.32;9.20;;;;;;;9.20;64.18;98051.78;5007087;28;20511;-58
2022/11/27 08:41:25;;;;;;;14.30;8.82;;;;;;;9.30;63.46;98047.81;5006428;28;20056;-58
2022/11/27 08:43:52;;;;;;;10.25;6.88;;;;;;;9.37;62.75;98025.97;5006446;28;20053;-57
2022/11/27 08:46:18;;;;;;;11.35;6.90;;;;;;;9.40;63.52;98047.41;5006579;28;20151;-58
2022/11/27 08:48:45;;;;;;;15.00;6.32;;;;;;;9.59;62.77;98044.97;5006722;28;20053;-55
2022/11/27 08:51:14;;;;;;;10.00;6.30;;;;;;;8.81;63.22;97935.38;5006276;28;20123;-58
2022/11/27 08:53:43;;;;;;;12.48;6.45;;;;;;;9.57;62.60;98047.25;5006406;28;20491;-56
2022/11/27 08:56:16;;;;;;;12.20;6.88;;;;;;;9.56;63.16;98056.72;5005054;28;20061;-58
2022/11/27 08:58:43;;;;;;;;;;;;;;;9.82;62.11;98031.53;5005762;28;20472;-58
2022/11/27 09:01:18;;;;;;;8.88;5.68;;;;;;;9.66;62.83;98031.38;5006245;28;20012;-58
2022/11/27 09:03:46;;;;;;;8.65;5.63;;;;;;;9.34;63.84;98031.34;5006104;28;20060;-58
2022/11/27 09:06:16;;;;;;;14.65;7.35;;;;;;;9.24;64.77;98038.09;5006200;28;20053;-55
2022/11/27 09:08:43;;;;;;;12.57;7.55;;;;;;;9.38;62.88;98030.34;5006002;28;20045;-56
2022/11/27 09:11:12;;;;;;;18.58;8.82;;;;;;;9.55;63.17;98030.19;5005764;28;20220;-58
2022/11/27 09:13:39;;;;;;;15.85;8.48;;;;;;;9.84;62.66;98024.53;5005850;28;20100;-58
2022/11/27 09:16:09;;;;;;;12.35;6.35;;;;;;;9.92;62.69;98026.41;5006033;28;20137;-57
2022/11/27 09:18:36;;;;;;;11.70;6.88;;;;;;;9.93;62.65;98028.00;5006103;28;20080;-58
2022/11/27 09:21:07;;;;;;;10.00;6.25;;;;;;;9.84;62.22;98016.22;5005818;28;20132;-56
2022/11/27 09:23:36;;;;;;;10.90;6.15;;;;;;;10.11;61.67;98012.84;5005656;28;20045;-58
2022/11/27 09:26:08;;;;;;;27.52;16.25;;;;;;;10.15;60.22;97999.94;5005756;28;20057;-56
2022/11/27 09:28:37;;;;;;;34.90;18.87;;;;;;;10.55;58.91;98005.63;5005548;28;20225;-58
2022/11/27 09:31:05;;;;;;;11.77;8.15;;;;;;;10.84;56.13;97979.59;5005276;28;20049;-58
2022/11/27 09:33:34;;;;;;;9.43;5.28;;;;;;;10.85;55.15;97959.03;5005419;28;20614;-55
2022/11/27 09:36:09;;;;;;;11.13;5.88;;;;;;;10.85;55.17;97975.66;5005344;28;20144;-58
2022/11/27 09:38:36;;;;;;;6.32;4.28;;;;;;;10.60;53.39;97970.19;5005588;28;20064;-58
2022/11/27 09:41:21;;;;;;;7.35;4.95;;;;;;;10.63;54.89;97969.47;5005155;28;20141;-55
2022/11/27 09:43:58;;;;;;;12.25;6.93;;;;;;;10.62;53.60;97965.06;4985691;28;20507;-58
2022/11/27 09:46:36;;;;;;;7.93;4.60;;;;;;;10.84;52.08;97965.75;4985518;28;20553;-59
2022/11/27 09:49:07;;;;;;;6.20;4.18;;;;;;;11.05;50.94;97958.09;4994009;28;20105;-56
2022/11/27 09:51:58;;;;;;;5.93;4.25;;;;;;;11.03;51.12;97946.53;5005509;28;20552;-55
2022/11/27 09:54:33;;;;;;;4.03;3.00;;;;;;;11.08;47.00;97940.75;5003840;28;20136;-55
2022/11/27 09:57:01;;;;;;;3.08;2.47;;;;;;;10.96;45.08;97888.09;5004946;28;20054;-61
2022/11/27 09:59:38;;;;;;;3.88;2.60;;;;;;;11.11;46.15;97917.84;5003668;28;20236;-57
2022/11/27 10:02:16;;;;;;;4.13;3.03;;;;;;;11.42;46.24;97923.47;5004781;28;20128;-55
2022/11/27 10:04:44;;;;;;;5.90;3.80;;;;;;;11.59;45.41;97923.16;5004518;28;20065;-55
2022/11/27 10:07:30;;;;;;;3.45;2.42;;;;;;;11.56;43.66;97923.88;5005127;28;20444;-59
2022/11/27 10:09:57;;;;;;;3.75;2.80;;;;;;;11.50;43.41;97919.75;5005090;28;20123;-58
2022/11/27 10:12:45;;;;;;;4.05;2.42;;;;;;;10.95;42.93;97912.25;5004894;28;20050;-60
2022/11/27 10:15:27;;;;;;;3.00;2.15;;;;;;;10.93;43.40;97908.19;5005013;28;20053;-56
2022/11/27 10:18:08;;;;;;;3.90;2.72;;;;;;;10.92;44.42;97898.28;5003733;28;20054;-55
2022/11/27 10:20:47;;;;;;;3.35;2.20;;;;;;;11.37;43.73;97904.31;5005240;28;20436;-57
2022/11/27 10:23:22;;;;;;;3.20;2.60;;;;;;;11.57;43.69;97898.53;5004848;28;20085;-58
2022/11/27 10:25:53;;;;;;;4.82;2.72;;;;;;;11.62;43.18;97900.25;5004720;28;20065;-56
2022/11/27 10:28:46;;;;;;;2.45;2.20;;;;;;;11.90;42.08;97884.38;5004715;28;20501;-56
2022/11/27 10:31:47;;;;;;;7.47;3.15;;;;;;;11.96;42.25;97882.94;4999479;28;20509;-57
2022/11/27 10:34:37;;;;;;;6.80;2.78;;;;;;;11.80;41.90;97882.13;4991514;28;20060;-58
2022/11/27 10:37:19;;;;;;;5.07;3.60;;;;;;;11.66;41.94;97834.59;4998477;28;20054;-56
2022/11/27 10:39:54;;;;;;;7.28;3.95;;;;;;;12.14;41.57;97878.59;5004963;28;20061;-58
2022/11/27 10:42:23;;;;;;;9.18;4.68;;;;;;;12.07;42.07;97875.69;5004675;28;20097;-58
2022/11/27 10:44:58;;;;;;;13.77;10.48;;;;;;;12.31;42.11;97869.91;5005428;28;20085;-57
2022/11/27 10:47:27;;;;;;;8.27;4.90;;;;;;;12.42;40.57;97870.97;5005087;28;20049;-59
2022/11/27 10:49:59;;;;;;;6.57;3.95;;;;;;;12.44;40.73;97871.38;5004631;28;20058;-57
2022/11/27 10:52:26;;;;;;;4.70;3.28;;;;;;;12.10;40.68;97849.97;5004727;28;20046;-59
2022/11/27 10:54:57;;;;;;;4.00;2.85;;;;;;;12.06;41.02;97865.75;5003502;28;20050;-56
2022/11/27 10:57:36;;;;;;;5.22;4.03;;;;;;;11.82;40.50;97863.16;5004535;28;20487;-56
2022/11/27 11:00:14;;;;;;;4.22;2.47;;;;;;;11.71;42.06;97859.31;5004966;28;20101;-56
2022/11/27 11:02:41;;;;;;;4.63;3.25;;;;;;;11.65;41.15;97860.75;5004222;28;20108;-55
2022/11/27 11:05:16;;;;;;;11.07;6.93;;;;;;;11.74;42.01;97848.28;5004389;28;20062;-58
2022/11/27 11:08:18;;;;;;;3.20;2.88;;;;;;;11.93;40.44;97850.34;5004580;28;20475;-58
2022/11/27 11:10:56;;;;;;;3.13;2.53;;;;;;;11.81;40.63;97847.66;5004670;28;20172;-58
2022/11/27 11:13:28;;;;;;;2.35;2.15;;;;;;;11.74;40.32;97836.38;5004429;28;20092;-56
2022/11/27 11:16:03;;;;;;;4.35;2.75;;;;;;;11.81;40.58;97836.53;5003252;28;20137;-58
2022/11/27 11:18:42;;;;;;;8.55;5.57;;;;;;;11.66;40.71;97829.03;5004513;28;20520;-55
2022/11/27 11:21:18;;;;;;;6.30;4.30;;;;;;;11.74;41.15;97825.28;5004375;28;20050;-55
2022/11/27 11:23:57;;;;;;;10.23;6.10;;;;;;;11.72;40.98;97833.16;5007790;28;20054;-55
2022/11/27 11:26:29;;;;;;;12.05;7.72;;;;;;;11.80;41.36;97819.09;5007624;28;20053;-58
2022/11/27 11:28:58;;;;;;;22.05;12.73;;;;;;;11.86;40.96;97828.75;5006727;28;20096;-59
2022/11/27 11:31:33;;;;;;;12.27;6.80;;;;;;;11.90;41.32;97823.31;5007439;28;20049;-56
2022/11/27 11:34:19;;;;;;;9.90;5.43;;;;;;;11.46;41.36;97792.03;5007941;28;20049;-58
2022/11/27 11:37:16;;;;;;;10.25;8.20;;;;;;;11.79;41.05;97800.81;5007619;28;20049;-58
2022/11/27 11:39:47;;;;;;;7.00;5.20;;;;;;;11.83;41.00;97817.56;5008045;28;20586;-58
2022/11/27 11:42:21;;;;;;;10.10;7.00;;;;;;;11.35;41.41;97726.38;5006336;28;20053;-56
2022/11/27 11:45:01;;;;;;;5.93;4.35;;;;;;;12.02;40.77;97809.31;5007899;28;20152;-59
2022/11/27 11:47:28;;;;;;;3.70;3.38;;;;;;;11.47;40.85;97737.34;5007863;28;20041;-57
2022/11/27 11:49:56;;;;;;;11.23;8.27;;;;;;;11.98;41.14;97809.22;5007702;28;20053;-59